Terminal Aerodrome Forecast
Issued by NWS

Home | Current Version | Previous Version | Graphics & Text | Print | Product List | Glossary On
Versions: 1 2 3 4 5 6 7 8 9 10 11 12 13 14 15 16 17 18 19 20 21
029
FTUS43 KABR 280824 AAB
TAFATY
TAF AMD
KATY 280824Z 2808/2906 21012KT P6SM OVC015
     FM281200 22011KT P6SM BKN060
     FM281400 27012KT P6SM BKN090
     FM281900 30015G22KT P6SM SCT150=

USA.gov is the U.S. government's official web portal to all federal, state and local government web resources and services.